createdAt,value
2023-03-05T00:00:33.263Z,0
2023-03-05T00:01:33.534Z,0
2023-03-05T00:02:33.321Z,0
2023-03-05T00:03:33.272Z,0
2023-03-05T00:04:33.280Z,0
2023-03-05T00:05:33.246Z,0
2023-03-05T00:06:33.288Z,0
2023-03-05T00:07:33.252Z,0
2023-03-05T00:08:33.256Z,0
2023-03-05T00:09:34.972Z,0
2023-03-05T00:10:33.262Z,0
2023-03-05T00:11:33.254Z,0
2023-03-05T00:12:33.244Z,0
2023-03-05T00:13:33.243Z,0
2023-03-05T00:14:33.265Z,0
2023-03-05T00:15:33.245Z,0
2023-03-05T00:16:33.245Z,0
2023-03-05T00:17:33.237Z,0
2023-03-05T00:18:33.260Z,0
2023-03-05T00:19:33.254Z,0
2023-03-05T00:20:33.240Z,0
2023-03-05T00:21:33.268Z,0
2023-03-05T00:22:33.235Z,0
2023-03-05T00:23:33.250Z,0
2023-03-05T00:24:33.254Z,0
2023-03-05T00:25:33.246Z,0
2023-03-05T00:26:33.253Z,0
2023-03-05T00:27:33.275Z,0
2023-03-05T00:28:33.240Z,0
2023-03-05T00:29:33.279Z,0
2023-03-05T00:30:33.242Z,0
2023-03-05T00:31:33.254Z,0
2023-03-05T00:32:33.353Z,0
2023-03-05T00:33:33.238Z,0
2023-03-05T00:34:33.271Z,0
2023-03-05T00:35:35.112Z,0
2023-03-05T00:36:33.254Z,0
2023-03-05T00:37:33.235Z,0
2023-03-05T00:38:33.267Z,0
2023-03-05T00:39:33.261Z,0
2023-03-05T00:40:33.321Z,0
2023-03-05T00:41:33.247Z,0
2023-03-05T00:42:33.246Z,0
2023-03-05T00:43:33.253Z,0
2023-03-05T00:44:33.256Z,0
2023-03-05T00:45:33.242Z,0
2023-03-05T00:46:33.325Z,0
2023-03-05T00:47:33.243Z,0
2023-03-05T00:48:33.246Z,0
2023-03-05T00:49:33.250Z,0
2023-03-05T00:50:33.267Z,0
2023-03-05T00:51:33.259Z,0
2023-03-05T00:52:33.251Z,0
2023-03-05T00:53:33.268Z,0
2023-03-05T00:54:33.281Z,0
2023-03-05T00:55:33.243Z,0
2023-03-05T00:56:33.245Z,0
2023-03-05T00:57:33.242Z,0
2023-03-05T00:58:33.257Z,0
2023-03-05T00:59:33.265Z,0
2023-03-05T01:00:33.241Z,0
2023-03-05T01:01:33.344Z,0
2023-03-05T01:02:34.762Z,0
2023-03-05T01:03:33.244Z,0
2023-03-05T01:04:33.251Z,0
2023-03-05T01:05:33.299Z,0
2023-03-05T01:06:33.244Z,0
2023-03-05T01:07:33.233Z,0
2023-03-05T01:08:33.232Z,0
2023-03-05T01:09:33.261Z,0
2023-03-05T01:10:33.232Z,0
2023-03-05T01:11:33.222Z,0
2023-03-05T01:12:33.234Z,0
2023-03-05T01:13:33.254Z,0
2023-03-05T01:14:33.254Z,0
2023-03-05T01:15:33.259Z,0
2023-03-05T01:16:33.347Z,0
2023-03-05T01:17:33.227Z,0
2023-03-05T01:18:33.243Z,0
2023-03-05T01:19:33.251Z,0
2023-03-05T01:20:33.221Z,0
2023-03-05T01:21:33.236Z,0
2023-03-05T01:22:33.221Z,0
2023-03-05T01:23:33.242Z,0
2023-03-05T01:24:33.258Z,0
2023-03-05T01:25:33.205Z,0
2023-03-05T01:26:33.234Z,0
2023-03-05T01:27:33.222Z,0
2023-03-05T01:28:33.226Z,0
2023-03-05T01:29:33.223Z,0
2023-03-05T01:30:33.212Z,0
2023-03-05T01:31:33.393Z,0
2023-03-05T01:32:34.729Z,0
2023-03-05T01:33:33.221Z,0
2023-03-05T01:34:33.225Z,0
2023-03-05T01:35:33.253Z,0
2023-03-05T01:36:33.231Z,0
2023-03-05T01:37:33.210Z,0
2023-03-05T01:38:33.226Z,0
2023-03-05T01:39:33.233Z,0
2023-03-05T01:40:33.226Z,0
2023-03-05T01:41:33.219Z,0
2023-03-05T01:42:33.233Z,0
2023-03-05T01:43:33.223Z,0
2023-03-05T01:44:33.231Z,0
2023-03-05T01:45:33.350Z,0
2023-03-05T01:46:33.207Z,0
2023-03-05T01:47:33.221Z,0
2023-03-05T01:48:33.208Z,0
2023-03-05T01:49:33.250Z,0
2023-03-05T01:50:33.220Z,0
2023-03-05T01:51:33.233Z,0
2023-03-05T01:52:33.220Z,0
2023-03-05T01:53:33.223Z,0
2023-03-05T01:54:33.233Z,0
2023-03-05T01:55:33.219Z,0
2023-03-05T01:56:33.221Z,0
2023-03-05T01:57:33.221Z,0
2023-03-05T01:58:33.219Z,0
2023-03-05T01:59:33.233Z,0
2023-03-05T02:00:33.216Z,0
2023-03-05T02:01:33.269Z,0
2023-03-05T02:02:33.216Z,0
2023-03-05T02:03:33.262Z,0
2023-03-05T02:04:33.235Z,0
2023-03-05T02:05:33.228Z,0
2023-03-05T02:06:33.252Z,0
2023-03-05T02:07:33.218Z,0
2023-03-05T02:08:33.222Z,0
2023-03-05T02:09:33.238Z,0
2023-03-05T02:10:33.273Z,0
2023-03-05T02:11:33.223Z,0
2023-03-05T02:12:33.223Z,0
2023-03-05T02:13:33.212Z,0
2023-03-05T02:14:33.247Z,0
2023-03-05T02:15:33.228Z,0
2023-03-05T02:16:33.275Z,0
2023-03-05T02:17:33.223Z,0
2023-03-05T02:18:33.228Z,0
2023-03-05T02:19:33.228Z,0
2023-03-05T02:20:33.217Z,0
2023-03-05T02:21:33.229Z,0
2023-03-05T02:22:33.224Z,0
2023-03-05T02:23:33.218Z,0
2023-03-05T02:24:33.243Z,0
2023-03-05T02:25:33.215Z,0
2023-03-05T02:26:33.223Z,0
2023-03-05T02:27:33.226Z,0
2023-03-05T02:28:33.241Z,0
2023-03-05T02:29:33.255Z,0
2023-03-05T02:30:33.219Z,0
2023-03-05T02:31:33.298Z,0
2023-03-05T02:32:33.284Z,0
2023-03-05T02:33:33.223Z,0
2023-03-05T02:34:33.231Z,0
2023-03-05T02:35:33.248Z,0
2023-03-05T02:36:33.235Z,0
2023-03-05T02:37:33.229Z,0
2023-03-05T02:38:33.222Z,0
2023-03-05T02:39:33.244Z,0
2023-03-05T02:40:33.223Z,0
2023-03-05T02:41:33.239Z,0
2023-03-05T02:42:33.224Z,0
2023-03-05T02:43:33.224Z,0
2023-03-05T02:44:33.281Z,0
2023-03-05T02:45:33.278Z,0
2023-03-05T02:46:33.253Z,0
2023-03-05T02:47:33.230Z,0
2023-03-05T02:48:33.237Z,0
2023-03-05T02:49:33.247Z,0
2023-03-05T02:50:33.231Z,0
2023-03-05T02:51:33.241Z,0
2023-03-05T02:52:33.217Z,0
2023-03-05T02:53:33.236Z,0
2023-03-05T02:54:33.249Z,0
2023-03-05T02:55:33.229Z,0
2023-03-05T02:56:33.225Z,0
2023-03-05T02:57:33.225Z,0
2023-03-05T02:58:33.253Z,0
2023-03-05T02:59:33.298Z,0
2023-03-05T03:00:33.229Z,0
2023-03-05T03:01:33.300Z,0
2023-03-05T03:02:33.247Z,0
2023-03-05T03:03:33.330Z,0
2023-03-05T03:04:33.239Z,0
2023-03-05T03:05:33.228Z,0
2023-03-05T03:06:33.378Z,0
2023-03-05T03:07:33.230Z,0
2023-03-05T03:08:33.229Z,0
2023-03-05T03:09:33.240Z,0
2023-03-05T03:10:33.240Z,0
2023-03-05T03:11:33.230Z,0
2023-03-05T03:12:33.220Z,0
2023-03-05T03:13:33.227Z,0
2023-03-05T03:14:33.253Z,0
2023-03-05T03:15:33.231Z,0
2023-03-05T03:16:33.252Z,0
2023-03-05T03:17:33.222Z,0
2023-03-05T03:18:33.230Z,0
2023-03-05T03:19:33.238Z,0
2023-03-05T03:20:33.234Z,0
2023-03-05T03:21:33.270Z,0
2023-03-05T03:22:33.259Z,0
2023-03-05T03:23:33.239Z,0
2023-03-05T03:24:33.253Z,0
2023-03-05T03:25:33.235Z,0
2023-03-05T03:26:33.250Z,0
2023-03-05T03:27:33.233Z,0
2023-03-05T03:28:33.224Z,0
2023-03-05T03:29:33.242Z,0
2023-03-05T03:30:33.279Z,0
2023-03-05T03:31:33.226Z,0
2023-03-05T03:32:33.274Z,0
2023-03-05T03:33:33.238Z,0
2023-03-05T03:34:33.296Z,0
2023-03-05T03:35:33.320Z,0
2023-03-05T03:36:33.245Z,0
2023-03-05T03:37:33.230Z,0
2023-03-05T03:38:33.255Z,0
2023-03-05T03:39:33.251Z,0
2023-03-05T03:40:33.254Z,0
2023-03-05T03:41:33.233Z,0
2023-03-05T03:42:33.248Z,0
2023-03-05T03:43:33.230Z,0
2023-03-05T03:44:33.244Z,0
2023-03-05T03:45:33.231Z,0
2023-03-05T03:46:33.324Z,0
2023-03-05T03:47:33.229Z,0
2023-03-05T03:48:33.237Z,0
2023-03-05T03:49:33.240Z,0
2023-03-05T03:50:33.228Z,0
2023-03-05T03:51:33.245Z,0
2023-03-05T03:52:33.238Z,0
2023-03-05T03:53:33.229Z,0
2023-03-05T03:54:33.246Z,0
2023-03-05T03:55:33.235Z,0
2023-03-05T03:56:33.248Z,0
2023-03-05T03:57:33.232Z,0
2023-03-05T03:58:33.233Z,0
2023-03-05T03:59:33.254Z,0
2023-03-05T04:00:33.232Z,0
2023-03-05T04:01:33.221Z,0
2023-03-05T04:02:33.291Z,0
2023-03-05T04:03:33.239Z,0
2023-03-05T04:04:33.313Z,0
2023-03-05T04:05:33.235Z,0
2023-03-05T04:06:33.253Z,0
2023-03-05T04:07:33.232Z,0
2023-03-05T04:08:33.221Z,0
2023-03-05T04:09:33.274Z,0
2023-03-05T04:10:33.237Z,0
2023-03-05T04:11:33.241Z,0
2023-03-05T04:12:33.230Z,0
2023-03-05T04:13:33.237Z,0
2023-03-05T04:14:33.270Z,0
2023-03-05T04:15:33.236Z,0
2023-03-05T04:16:33.234Z,0
2023-03-05T04:17:33.245Z,0
2023-03-05T04:18:33.236Z,0
2023-03-05T04:19:33.241Z,0
2023-03-05T04:20:33.220Z,0
2023-03-05T04:21:33.245Z,0
2023-03-05T04:22:33.233Z,0
2023-03-05T04:23:33.225Z,0
2023-03-05T04:24:33.240Z,0
2023-03-05T04:25:33.234Z,0
2023-03-05T04:26:33.254Z,0
2023-03-05T04:27:33.231Z,0
2023-03-05T04:28:33.244Z,0
2023-03-05T04:29:33.246Z,0
2023-03-05T04:30:33.231Z,0
2023-03-05T04:31:33.346Z,0
2023-03-05T04:32:33.331Z,0
2023-03-05T04:33:33.232Z,0
2023-03-05T04:34:33.419Z,0
2023-03-05T04:35:33.283Z,0
2023-03-05T04:36:33.325Z,0
2023-03-05T04:37:33.229Z,0
2023-03-05T04:38:33.226Z,0
2023-03-05T04:39:33.236Z,0
2023-03-05T04:40:33.225Z,0
2023-03-05T04:41:33.224Z,0
2023-03-05T04:42:33.230Z,0
2023-03-05T04:43:33.242Z,0
2023-03-05T04:44:33.235Z,0
2023-03-05T04:45:33.228Z,0
2023-03-05T04:46:33.285Z,0
2023-03-05T04:47:33.225Z,0
2023-03-05T04:48:33.232Z,0
2023-03-05T04:49:33.237Z,0
2023-03-05T04:50:33.225Z,0
2023-03-05T04:51:33.250Z,0
2023-03-05T04:52:33.222Z,0
2023-03-05T04:53:33.226Z,0
2023-03-05T04:54:33.234Z,0
2023-03-05T04:55:33.224Z,0
2023-03-05T04:56:33.224Z,0
2023-03-05T04:57:33.227Z,0
2023-03-05T04:58:33.221Z,0
2023-03-05T04:59:33.233Z,0
2023-03-05T05:00:33.212Z,0
2023-03-05T05:01:33.242Z,0
2023-03-05T05:02:33.269Z,0
2023-03-05T05:03:33.238Z,0
2023-03-05T05:04:33.275Z,0
2023-03-05T05:05:33.225Z,0
2023-03-05T05:06:33.253Z,0
2023-03-05T05:07:33.222Z,0
2023-03-05T05:08:33.227Z,0
2023-03-05T05:09:33.240Z,0
2023-03-05T05:10:33.221Z,0
2023-03-05T05:11:33.217Z,0
2023-03-05T05:12:33.218Z,0
2023-03-05T05:13:33.226Z,0
2023-03-05T05:14:33.247Z,0
2023-03-05T05:15:33.232Z,0
2023-03-05T05:16:33.356Z,0
2023-03-05T05:17:33.231Z,0
2023-03-05T05:18:33.230Z,1
2023-03-05T05:19:33.349Z,1
2023-03-05T05:20:33.213Z,3
2023-03-05T05:21:33.246Z,5
2023-03-05T05:22:33.228Z,5
2023-03-05T05:23:33.211Z,7
2023-03-05T05:24:33.239Z,9
2023-03-05T05:25:33.229Z,11
2023-03-05T05:26:33.232Z,14
2023-03-05T05:27:33.230Z,20
2023-03-05T05:28:33.222Z,23
2023-03-05T05:29:33.245Z,27
2023-03-05T05:30:33.220Z,33
2023-03-05T05:31:33.279Z,36
2023-03-05T05:32:33.333Z,40
2023-03-05T05:33:33.225Z,44
2023-03-05T05:34:33.243Z,51
2023-03-05T05:35:33.274Z,62
2023-03-05T05:36:33.250Z,71
2023-03-05T05:37:33.232Z,82
2023-03-05T05:38:33.222Z,92
2023-03-05T05:39:33.237Z,101
2023-03-05T05:40:33.221Z,108
2023-03-05T05:41:33.237Z,117
2023-03-05T05:42:33.240Z,117
2023-03-05T05:43:33.237Z,119
2023-03-05T05:44:33.247Z,130
2023-03-05T05:45:33.407Z,149
2023-03-05T05:46:33.327Z,156
2023-03-05T05:47:33.225Z,180
2023-03-05T05:48:33.239Z,213
2023-03-05T05:49:33.260Z,237
2023-03-05T05:50:33.233Z,259
2023-03-05T05:51:33.245Z,270
2023-03-05T05:52:33.243Z,263
2023-03-05T05:53:33.225Z,245
2023-03-05T05:54:33.244Z,239
2023-03-05T05:55:33.242Z,254
2023-03-05T05:56:33.234Z,245
2023-03-05T05:57:33.244Z,256
2023-03-05T05:58:33.232Z,265
2023-03-05T05:59:33.251Z,298
2023-03-05T06:00:33.253Z,278
2023-03-05T06:01:33.269Z,261
2023-03-05T06:02:33.239Z,263
2023-03-05T06:03:33.236Z,272
2023-03-05T06:04:33.243Z,311
2023-03-05T06:05:33.237Z,366
2023-03-05T06:06:33.255Z,317
2023-03-05T06:07:33.225Z,304
2023-03-05T06:08:33.225Z,304
2023-03-05T06:09:33.254Z,320
2023-03-05T06:10:33.240Z,313
2023-03-05T06:11:33.240Z,342
2023-03-05T06:12:33.240Z,453
2023-03-05T06:13:33.237Z,608
2023-03-05T06:14:33.254Z,608
2023-03-05T06:15:33.246Z,739
2023-03-05T06:16:33.292Z,790
2023-03-05T06:17:33.238Z,903
2023-03-05T06:18:33.234Z,934
2023-03-05T06:19:33.237Z,1032
2023-03-05T06:20:33.237Z,1159
2023-03-05T06:21:33.282Z,1240
2023-03-05T06:22:33.243Z,1284
2023-03-05T06:23:33.234Z,1345
2023-03-05T06:24:33.255Z,1445
2023-03-05T06:25:33.240Z,1446
2023-03-05T06:26:33.240Z,1336
2023-03-05T06:27:33.232Z,1222
2023-03-05T06:28:33.226Z,1144
2023-03-05T06:29:33.247Z,1081
2023-03-05T06:30:33.314Z,1050
2023-03-05T06:31:34.273Z,1017
2023-03-05T06:32:33.296Z,978
2023-03-05T06:33:33.221Z,960
2023-03-05T06:34:33.244Z,963
2023-03-05T06:35:33.248Z,1032
2023-03-05T06:36:33.249Z,1174
2023-03-05T06:37:33.232Z,1253
2023-03-05T06:38:33.228Z,1319
2023-03-05T06:39:33.248Z,1400
2023-03-05T06:40:33.251Z,1448
2023-03-05T06:41:33.227Z,1627
2023-03-05T06:42:33.223Z,1730
2023-03-05T06:43:33.237Z,1859
2023-03-05T06:44:33.242Z,1857
2023-03-05T06:45:33.228Z,1913
2023-03-05T06:46:33.245Z,1867
2023-03-05T06:47:33.235Z,1892
2023-03-05T06:48:33.244Z,1887
2023-03-05T06:49:33.265Z,1811
2023-03-05T06:50:33.229Z,1758
2023-03-05T06:51:33.250Z,1716
2023-03-05T06:52:33.242Z,1804
2023-03-05T06:53:33.230Z,1913
2023-03-05T06:54:33.240Z,2042
2023-03-05T06:55:33.261Z,2245
2023-03-05T06:56:33.264Z,2359
2023-03-05T06:57:33.231Z,2462
2023-03-05T06:58:33.233Z,2506
2023-03-05T06:59:33.240Z,2331
2023-03-05T07:00:33.235Z,2412
2023-03-05T07:01:33.312Z,2525
2023-03-05T07:02:33.296Z,2582
2023-03-05T07:03:33.232Z,2622
2023-03-05T07:04:33.246Z,2571
2023-03-05T07:05:34.217Z,2536
2023-03-05T07:06:33.243Z,2609
2023-03-05T07:07:33.230Z,2692
2023-03-05T07:08:33.230Z,2692
2023-03-05T07:09:33.240Z,2613
2023-03-05T07:10:33.240Z,2538
2023-03-05T07:11:33.229Z,2418
2023-03-05T07:12:33.256Z,2504
2023-03-05T07:13:33.233Z,2689
2023-03-05T07:14:33.253Z,2757
2023-03-05T07:15:33.328Z,2593
2023-03-05T07:16:33.257Z,2355
2023-03-05T07:17:33.218Z,2514
2023-03-05T07:18:33.232Z,2571
2023-03-05T07:19:33.249Z,2453
2023-03-05T07:20:33.257Z,2381
2023-03-05T07:21:33.244Z,2455
2023-03-05T07:22:33.237Z,2750
2023-03-05T07:23:33.248Z,2928
2023-03-05T07:24:33.249Z,2659
2023-03-05T07:25:33.232Z,2665
2023-03-05T07:26:33.265Z,2772
2023-03-05T07:27:33.231Z,2917
2023-03-05T07:28:33.238Z,2827
2023-03-05T07:29:33.265Z,2842
2023-03-05T07:30:33.231Z,2954
2023-03-05T07:31:33.226Z,3004
2023-03-05T07:32:33.289Z,2656
2023-03-05T07:33:33.235Z,2580
2023-03-05T07:34:33.250Z,2672
2023-03-05T07:35:33.304Z,3118
2023-03-05T07:36:33.497Z,3293
2023-03-05T07:37:33.247Z,3581
2023-03-05T07:38:33.234Z,3706
2023-03-05T07:39:33.263Z,3690
2023-03-05T07:40:33.224Z,3944
2023-03-05T07:41:33.232Z,4440
2023-03-05T07:42:33.312Z,5103
2023-03-05T07:43:33.239Z,5747
2023-03-05T07:44:33.241Z,5800
2023-03-05T07:45:33.231Z,5887
2023-03-05T07:46:33.331Z,6112
2023-03-05T07:47:33.229Z,5756
2023-03-05T07:48:33.234Z,5564
2023-03-05T07:49:33.252Z,5584
2023-03-05T07:50:33.230Z,5724
2023-03-05T07:51:33.260Z,5704
2023-03-05T07:52:33.234Z,5787
2023-03-05T07:53:33.235Z,5997
2023-03-05T07:54:33.253Z,5857
2023-03-05T07:55:33.229Z,5818
2023-03-05T07:56:33.238Z,5920
2023-03-05T07:57:33.233Z,5761
2023-03-05T07:58:33.229Z,5861
2023-03-05T07:59:33.248Z,5570
2023-03-05T08:00:33.239Z,5551
2023-03-05T08:01:33.237Z,5774
2023-03-05T08:02:33.396Z,5872
2023-03-05T08:03:33.239Z,5704
2023-03-05T08:04:33.322Z,5533
2023-03-05T08:05:33.244Z,5454
2023-03-05T08:06:33.293Z,4963
2023-03-05T08:07:33.230Z,4456
2023-03-05T08:08:33.239Z,4456
2023-03-05T08:09:33.272Z,2923
2023-03-05T08:10:33.237Z,2729
2023-03-05T08:11:33.241Z,2646
2023-03-05T08:12:33.245Z,3138
2023-03-05T08:13:33.237Z,3575
2023-03-05T08:14:33.245Z,3362
2023-03-05T08:15:33.394Z,3227
2023-03-05T08:16:33.234Z,3245
2023-03-05T08:17:33.223Z,3079
2023-03-05T08:18:33.244Z,3269
2023-03-05T08:19:33.262Z,3551
2023-03-05T08:20:33.238Z,3655
2023-03-05T08:21:33.250Z,3741
2023-03-05T08:22:33.230Z,3773
2023-03-05T08:23:33.239Z,4012
2023-03-05T08:24:33.236Z,4325
2023-03-05T08:25:33.233Z,4067
2023-03-05T08:26:33.228Z,3826
2023-03-05T08:27:33.238Z,3752
2023-03-05T08:28:34.408Z,3734
2023-03-05T08:29:33.244Z,3914
2023-03-05T08:30:33.234Z,4149
2023-03-05T08:31:33.314Z,4071
2023-03-05T08:32:33.297Z,3833
2023-03-05T08:33:35.264Z,3601
2023-03-05T08:34:33.244Z,3575
2023-03-05T08:35:33.305Z,3669
2023-03-05T08:36:33.242Z,3811
2023-03-05T08:37:33.229Z,4088
2023-03-05T08:38:33.241Z,4230
2023-03-05T08:39:33.245Z,4077
2023-03-05T08:40:33.235Z,3916
2023-03-05T08:41:33.236Z,3385
2023-03-05T08:42:33.235Z,3467
2023-03-05T08:43:33.234Z,3323
2023-03-05T08:44:33.237Z,2962
2023-03-05T08:45:33.216Z,2735
2023-03-05T08:46:33.273Z,2888
2023-03-05T08:47:33.236Z,3085
2023-03-05T08:48:33.233Z,3319
2023-03-05T08:49:33.269Z,4032
2023-03-05T08:50:33.242Z,4620
2023-03-05T08:51:33.243Z,4714
2023-03-05T08:52:33.244Z,4947
2023-03-05T08:53:33.223Z,5426
2023-03-05T08:54:33.250Z,6139
2023-03-05T08:55:33.235Z,5970
2023-03-05T08:56:33.243Z,5481
2023-03-05T08:57:33.221Z,4996
2023-03-05T08:58:33.229Z,4654
2023-03-05T08:59:33.235Z,4292
2023-03-05T09:00:33.233Z,4178
2023-03-05T09:01:33.290Z,4491
2023-03-05T09:02:33.293Z,4808
2023-03-05T09:03:33.242Z,4993
2023-03-05T09:04:33.238Z,5212
2023-03-05T09:05:33.231Z,5068
2023-03-05T09:06:33.253Z,4440
2023-03-05T09:07:33.241Z,3819
2023-03-05T09:08:33.246Z,3819
2023-03-05T09:09:33.243Z,2845
2023-03-05T09:10:33.242Z,2816
2023-03-05T09:11:33.231Z,3063
2023-03-05T09:12:33.237Z,3161
2023-03-05T09:13:33.296Z,3371
2023-03-05T09:14:33.241Z,3570
2023-03-05T09:15:33.238Z,3524
2023-03-05T09:16:33.286Z,3301
2023-03-05T09:17:33.236Z,3588
2023-03-05T09:18:33.243Z,3608
2023-03-05T09:19:33.244Z,4038
2023-03-05T09:20:33.239Z,4324
2023-03-05T09:21:33.259Z,4125
2023-03-05T09:22:33.236Z,4311
2023-03-05T09:23:33.246Z,4208
2023-03-05T09:24:33.248Z,4255
2023-03-05T09:25:33.234Z,4432
2023-03-05T09:26:33.228Z,4167
2023-03-05T09:27:33.234Z,4043
2023-03-05T09:28:33.233Z,3959
2023-03-05T09:29:33.236Z,3959
2023-03-05T09:30:33.227Z,3959
2023-03-05T09:31:33.295Z,3959
2023-03-05T09:32:33.300Z,3959
2023-03-05T09:33:33.230Z,3959
2023-03-05T09:34:33.246Z,3959
2023-03-05T09:35:33.349Z,3959
2023-03-05T09:36:33.283Z,3959
2023-03-05T09:37:33.227Z,3959
2023-03-05T09:38:33.235Z,3959
2023-03-05T09:39:33.239Z,3959
2023-03-05T09:40:33.227Z,3959
2023-03-05T09:41:33.232Z,3959
2023-03-05T09:42:33.247Z,3959
2023-03-05T09:43:33.225Z,3959
2023-03-05T09:44:33.249Z,3959
2023-03-05T09:45:33.250Z,3959
2023-03-05T09:46:33.225Z,3959
2023-03-05T09:47:33.228Z,3959
2023-03-05T09:48:33.228Z,3959
2023-03-05T09:49:33.236Z,3959
2023-03-05T09:50:33.240Z,3959
2023-03-05T09:51:33.235Z,3959
2023-03-05T09:52:33.235Z,3959
2023-03-05T09:53:33.242Z,3959
2023-03-05T09:54:33.256Z,3959
2023-03-05T09:55:33.227Z,3959
2023-03-05T09:56:33.285Z,3959
2023-03-05T09:57:33.231Z,3959
2023-03-05T09:58:33.238Z,3959
2023-03-05T09:59:33.237Z,3959
2023-03-05T10:00:33.234Z,3959
2023-03-05T10:01:33.234Z,3959
2023-03-05T10:02:33.234Z,3959
2023-03-05T10:03:33.227Z,3959
2023-03-05T10:04:33.242Z,3959
2023-03-05T10:05:33.240Z,3959
2023-03-05T10:06:33.250Z,3959
2023-03-05T10:07:33.228Z,3959
2023-03-05T10:08:33.231Z,3959
2023-03-05T10:09:33.768Z,3959
2023-03-05T10:10:33.237Z,3959
2023-03-05T10:11:33.233Z,3959
2023-03-05T10:12:33.227Z,3959
2023-03-05T10:13:33.229Z,3959
2023-03-05T10:14:33.255Z,3959
2023-03-05T10:15:33.238Z,3959
2023-03-05T10:16:33.259Z,3959
2023-03-05T10:17:33.220Z,3959
2023-03-05T10:18:33.224Z,3959
2023-03-05T10:19:33.243Z,3959
2023-03-05T10:20:33.238Z,3959
2023-03-05T10:21:33.238Z,3959
2023-03-05T10:22:33.221Z,3959
2023-03-05T10:23:33.223Z,3959
2023-03-05T10:24:33.254Z,3959
2023-03-05T10:25:33.226Z,3959
2023-03-05T10:26:33.233Z,3959
2023-03-05T10:27:33.307Z,3959
2023-03-05T10:28:33.224Z,3959
2023-03-05T10:29:33.244Z,3959
2023-03-05T10:30:33.218Z,3959
2023-03-05T10:31:33.250Z,3959
2023-03-05T10:32:33.279Z,3959
2023-03-05T10:33:33.691Z,3959
2023-03-05T10:34:33.247Z,3959
2023-03-05T10:35:33.239Z,3959
2023-03-05T10:36:33.240Z,3959
2023-03-05T10:37:33.231Z,3959
2023-03-05T10:38:33.223Z,3959
2023-03-05T10:39:33.248Z,3959
2023-03-05T10:40:33.259Z,1653
2023-03-05T10:41:33.225Z,1653
2023-03-05T10:42:33.224Z,1653
2023-03-05T10:43:33.227Z,1653
2023-03-05T10:44:33.237Z,1653
2023-03-05T10:45:33.304Z,3321
2023-03-05T10:46:33.223Z,3474
2023-03-05T10:47:33.231Z,3420
2023-03-05T10:48:33.220Z,3111
2023-03-05T10:49:33.235Z,3708
2023-03-05T10:50:33.228Z,4158
2023-03-05T10:51:33.314Z,4359
2023-03-05T10:52:33.227Z,4902
2023-03-05T10:53:33.219Z,5129
2023-03-05T10:54:33.246Z,5297
2023-03-05T10:55:33.229Z,6287
2023-03-05T10:56:33.230Z,7934
2023-03-05T10:57:33.225Z,9166
2023-03-05T10:58:33.236Z,9050
2023-03-05T10:59:33.238Z,10198
2023-03-05T11:00:33.225Z,14349
2023-03-05T11:01:33.336Z,13366
2023-03-05T11:02:33.300Z,14817
2023-03-05T11:03:33.222Z,12618
2023-03-05T11:04:33.243Z,12662
2023-03-05T11:05:33.219Z,14384
2023-03-05T11:06:33.240Z,21594
2023-03-05T11:07:33.217Z,20004
2023-03-05T11:08:33.220Z,14655
2023-03-05T11:09:33.303Z,12966
2023-03-05T11:10:33.235Z,12397
2023-03-05T11:11:33.247Z,11311
2023-03-05T11:12:33.218Z,8572
2023-03-05T11:14:19.848Z,7402
2023-03-05T11:15:18.743Z,7182
2023-03-05T11:16:20.874Z,5975
2023-03-05T11:17:18.713Z,5194
2023-03-05T11:18:18.718Z,4643
2023-03-05T11:19:18.725Z,4285
2023-03-05T11:20:18.840Z,3916
2023-03-05T11:21:18.703Z,3817
2023-03-05T11:22:18.725Z,3706
2023-03-05T11:23:18.716Z,3745
2023-03-05T11:25:10.133Z,4333
2023-03-05T11:26:09.114Z,5054
2023-03-05T11:27:09.092Z,4676
2023-03-05T11:28:09.056Z,4248
2023-03-05T11:29:09.079Z,4735
2023-03-05T11:30:09.098Z,4891
2023-03-05T11:31:09.112Z,5286
2023-03-05T11:32:09.077Z,6126
2023-03-05T11:33:10.493Z,7216
2023-03-05T11:34:09.062Z,8146
2023-03-05T11:35:09.073Z,9110
2023-03-05T11:36:09.061Z,9956
2023-03-05T11:37:09.062Z,11422
2023-03-05T11:38:09.058Z,13689
2023-03-05T11:39:09.057Z,14242
2023-03-05T11:40:09.084Z,14242
2023-03-05T11:41:09.053Z,13567
2023-03-05T11:42:09.061Z,12587
2023-03-05T11:43:09.095Z,12471
2023-03-05T11:44:09.062Z,13136
2023-03-05T11:45:09.082Z,13676
2023-03-05T11:46:09.086Z,15274
2023-03-05T11:47:09.054Z,16210
2023-03-05T11:48:09.053Z,22558
2023-03-05T11:49:09.058Z,22846
2023-03-05T11:50:09.090Z,21353
2023-03-05T11:51:09.114Z,16507
2023-03-05T11:52:09.049Z,16126
2023-03-05T11:53:09.173Z,13112
2023-03-05T11:54:09.052Z,11236
2023-03-05T11:55:09.074Z,9909
2023-03-05T11:56:09.067Z,8854
2023-03-05T11:57:09.054Z,7982
2023-03-05T11:58:09.053Z,7081
2023-03-05T11:59:09.050Z,6408
2023-03-05T12:00:09.083Z,6021
2023-03-05T12:01:09.055Z,5313
2023-03-05T12:02:09.050Z,5096
2023-03-05T12:03:09.212Z,5074
2023-03-05T12:04:48.645Z,4373
2023-03-05T12:05:47.581Z,4049
2023-03-05T12:06:47.558Z,3780
2023-03-05T12:08:05.551Z,3511
2023-03-05T12:09:04.562Z,3511
2023-03-05T12:10:04.565Z,3330
2023-03-05T12:11:04.551Z,3413
2023-03-05T12:12:04.557Z,3559
2023-03-05T12:17:04.561Z,4034
2023-03-05T12:18:04.549Z,3951
2023-03-05T12:19:27.957Z,3323
2023-03-05T12:20:26.934Z,3057
2023-03-05T12:21:26.858Z,2762
2023-03-05T12:22:26.823Z,2663
2023-03-05T12:23:26.834Z,2639
2023-03-05T12:24:28.370Z,2504
2023-03-05T12:25:26.826Z,2320
2023-03-05T12:26:26.827Z,2163
2023-03-05T12:27:26.823Z,1990
2023-03-05T12:28:26.823Z,1964
2023-03-05T12:29:26.817Z,2034
2023-03-05T12:30:26.810Z,2021
2023-03-05T12:31:26.939Z,1946
2023-03-05T12:32:26.854Z,1583
2023-03-05T12:33:26.822Z,1465
2023-03-05T12:34:26.817Z,1513
2023-03-05T12:35:26.828Z,1802
2023-03-05T12:36:26.830Z,2280
2023-03-05T12:37:26.825Z,2890
2023-03-05T12:38:27.286Z,3299
2023-03-05T12:39:26.835Z,3973
2023-03-05T12:40:26.820Z,4478
2023-03-05T12:41:28.206Z,4925
2023-03-05T12:42:26.817Z,4961
2023-03-05T12:43:26.812Z,4655
2023-03-05T12:44:26.823Z,4097
2023-03-05T12:45:26.814Z,3802
2023-03-05T12:46:26.919Z,3883
2023-03-05T12:47:26.825Z,4254
2023-03-05T12:48:26.838Z,5428
2023-03-05T12:49:26.826Z,6869
2023-03-05T12:50:26.820Z,7417
2023-03-05T12:51:26.852Z,7899
2023-03-05T12:52:26.833Z,7522
2023-03-05T12:53:26.820Z,7313
2023-03-05T12:54:26.989Z,7186
2023-03-05T12:55:26.820Z,7103
2023-03-05T12:56:26.832Z,7037
2023-03-05T12:57:26.811Z,6548
2023-03-05T12:58:26.817Z,6032
2023-03-05T12:59:26.814Z,5677
2023-03-05T13:00:26.898Z,5188
2023-03-05T13:01:26.823Z,4666
2023-03-05T13:02:26.814Z,4375
2023-03-05T13:03:26.812Z,4184
2023-03-05T13:04:26.810Z,3754
2023-03-05T13:05:26.809Z,3551
2023-03-05T13:06:26.823Z,3271
2023-03-05T13:07:26.816Z,3271
2023-03-05T13:08:26.814Z,2644
2023-03-05T13:09:26.847Z,2366
2023-03-05T13:10:26.814Z,2141
2023-03-05T13:11:27.458Z,2079
2023-03-05T13:12:26.895Z,1944
2023-03-05T13:13:26.815Z,1846
2023-03-05T13:14:26.812Z,2086
2023-03-05T13:15:26.812Z,2311
2023-03-05T13:16:26.880Z,2375
2023-03-05T13:17:26.813Z,2226
2023-03-05T13:18:26.810Z,1972
2023-03-05T13:19:26.804Z,1972
2023-03-05T13:20:27.099Z,1972
2023-03-05T13:21:26.823Z,1972
2023-03-05T13:22:26.817Z,1972
2023-03-05T13:23:26.937Z,1972
2023-03-05T13:24:26.822Z,1972
2023-03-05T13:25:26.804Z,1972
2023-03-05T13:26:26.899Z,1972
2023-03-05T13:27:27.221Z,1972
2023-03-05T13:28:26.803Z,1972
2023-03-05T13:29:26.801Z,1972
2023-03-05T13:30:26.792Z,1972
2023-03-05T13:31:26.848Z,1972
2023-03-05T13:32:26.896Z,1972
2023-03-05T13:33:26.799Z,1972
2023-03-05T13:34:34.744Z,1972
2023-03-05T13:35:26.826Z,1972
2023-03-05T13:36:26.825Z,1972
2023-03-05T13:37:26.806Z,1972
2023-03-05T13:38:26.825Z,1972
2023-03-05T13:39:26.811Z,1972
2023-03-05T13:40:26.796Z,1972
2023-03-05T13:41:26.810Z,1972
2023-03-05T13:42:26.797Z,1972
2023-03-05T13:43:26.797Z,1972
2023-03-05T13:44:26.871Z,1972
2023-03-05T13:45:26.907Z,1972
2023-03-05T13:46:26.992Z,1972
2023-03-05T13:47:26.792Z,1972
2023-03-05T13:48:26.788Z,1972
2023-03-05T13:49:37.457Z,1972
2023-03-05T13:50:36.464Z,1972
2023-03-05T13:51:54.294Z,1972
2023-03-05T13:52:53.148Z,1972
2023-03-05T13:53:53.153Z,1972
2023-03-05T13:54:53.160Z,1972
2023-03-05T13:55:53.142Z,1972
2023-03-05T13:56:53.135Z,1972
2023-03-05T13:57:53.217Z,1972
2023-03-05T13:58:53.143Z,1972
2023-03-05T13:59:53.125Z,1972